地図

経路データ

SID SEASON NUMBER BASIN SUBBASIN NAME ISO_TIME NATURE LAT LON WMO_WIND WMO_PRES WMO_AGENCY TRACK_TYPE DIST2LAND LANDFALL IFLAG USA_AGENCY USA_ATCF_ID USA_LAT USA_LON USA_RECORD USA_STATUS USA_WIND USA_PRES USA_SSHS USA_R34_NE USA_R34_SE USA_R34_SW USA_R34_NW USA_R50_NE USA_R50_SE USA_R50_SW USA_R50_NW USA_R64_NE USA_R64_SE USA_R64_SW USA_R64_NW USA_POCI USA_ROCI USA_RMW USA_EYE TOKYO_LAT TOKYO_LON TOKYO_GRADE TOKYO_WIND TOKYO_PRES TOKYO_R50_DIR TOKYO_R50_LONG TOKYO_R50_SHORT TOKYO_R30_DIR TOKYO_R30_LONG TOKYO_R30_SHORT TOKYO_LAND CMA_LAT CMA_LON CMA_CAT CMA_WIND CMA_PRES HKO_LAT HKO_LON HKO_CAT HKO_WIND HKO_PRES NEWDELHI_LAT NEWDELHI_LON NEWDELHI_GRADE NEWDELHI_WIND NEWDELHI_PRES NEWDELHI_CI NEWDELHI_DP NEWDELHI_POCI REUNION_LAT REUNION_LON REUNION_TYPE REUNION_WIND REUNION_PRES REUNION_TNUM REUNION_CI REUNION_RMW REUNION_R34_NE REUNION_R34_SE REUNION_R34_SW REUNION_R34_NW REUNION_R50_NE REUNION_R50_SE REUNION_R50_SW REUNION_R50_NW REUNION_R64_NE REUNION_R64_SE REUNION_R64_SW REUNION_R64_NW BOM_LAT BOM_LON BOM_TYPE BOM_WIND BOM_PRES BOM_TNUM BOM_CI BOM_RMW BOM_R34_NE BOM_R34_SE BOM_R34_SW BOM_R34_NW BOM_R50_NE BOM_R50_SE BOM_R50_SW BOM_R50_NW BOM_R64_NE BOM_R64_SE BOM_R64_SW BOM_R64_NW BOM_ROCI BOM_POCI BOM_EYE BOM_POS_METHOD BOM_PRES_METHOD NADI_LAT NADI_LON NADI_CAT NADI_WIND NADI_PRES WELLINGTON_LAT WELLINGTON_LON WELLINGTON_WIND WELLINGTON_PRES DS824_LAT DS824_LON DS824_STAGE DS824_WIND DS824_PRES TD9636_LAT TD9636_LON TD9636_STAGE TD9636_WIND TD9636_PRES TD9635_LAT TD9635_LON TD9635_WIND TD9635_PRES TD9635_ROCI NEUMANN_LAT NEUMANN_LON NEUMANN_CLASS NEUMANN_WIND NEUMANN_PRES MLC_LAT MLC_LON MLC_CLASS MLC_WIND MLC_PRES USA_GUST BOM_GUST BOM_GUST_PER REUNION_GUST REUNION_GUST_PER USA_SEAHGT USA_SEARAD_NE USA_SEARAD_SE USA_SEARAD_SW USA_SEARAD_NW STORM_SPEED STORM_DIR
1862147N28285 1862 13 NA NA NOT_NAMED 1862-05-26 12:00:00 SS 27.5000 -75.2000 main 386 386 _____________O -1 27.5000 -75.2000 SS 35 7 62
1862147N28285 1862 13 NA NA NOT_NAMED 1862-05-26 15:00:00 SS 27.6627 -74.8503 main 423 423 _____________P -1 27.6627 -74.8503 SS 35 7 64
1862147N28285 1862 13 NA NA NOT_NAMED 1862-05-26 18:00:00 SS 27.8000 -74.5000 main 460 460 _____________O -1 27.8000 -74.5000 SS 35 7 69
1862147N28285 1862 13 NA NA NOT_NAMED 1862-05-26 21:00:00 SS 27.8999 -74.1498 main 498 498 _____________P -1 27.8999 -74.1498 SS 35 7 72
1862147N28285 1862 13 NA NA NOT_NAMED 1862-05-27 00:00:00 SS 28.0000 -73.8000 main 528 528 _____________O -1 28.0000 -73.8000 SS 35 7 68
1862147N28285 1862 13 NA NA NOT_NAMED 1862-05-27 03:00:00 SS 28.1500 -73.4426 main 566 566 _____________P -1 28.1500 -73.4426 SS 35 7 64
1862147N28285 1862 13 NA NA NOT_NAMED 1862-05-27 06:00:00 SS 28.3000 -73.1000 main 603 603 _____________O -1 28.3000 -73.1000 SS 35 6 69
1862147N28285 1862 13 NA NA NOT_NAMED 1862-05-27 09:00:00 SS 28.3621 -72.8217 main 633 633 _____________P -1 28.3621 -72.8217 SS 37 6 69
1862147N28285 1862 13 NA NA NOT_NAMED 1862-05-27 12:00:00 SS 28.5000 -72.5000 main 664 664 _____________O -1 28.5000 -72.5000 SS 40 9 54
1862147N28285 1862 13 NA NA NOT_NAMED 1862-05-27 15:00:00 SS 28.8626 -72.0305 main 729 729 _____________P -1 28.8626 -72.0305 SS 40 12 48
1862147N28285 1862 13 NA NA NOT_NAMED 1862-05-27 18:00:00 SS 29.3000 -71.5000 main 764 758 _____________O -1 29.3000 -71.5000 SS 40 12 49
1862147N28285 1862 13 NA NA NOT_NAMED 1862-05-27 21:00:00 SS 29.6498 -70.9994 main 768 759 _____________P -1 29.6498 -70.9994 SS 40 11 51
1862147N28285 1862 13 NA NA NOT_NAMED 1862-05-28 00:00:00 SS 30.0000 -70.5000 main 768 766 _____________O -1 30.0000 -70.5000 SS 40 11 49
1862147N28285 1862 13 NA NA NOT_NAMED 1862-05-28 03:00:00 SS 30.3998 -69.9998 main 773 773 _____________P -1 30.3998 -69.9998 SS 40 12 47
1862147N28285 1862 13 NA NA NOT_NAMED 1862-05-28 06:00:00 SS 30.8000 -69.5000 main 781 781 _____________O -1 30.8000 -69.5000 SS 40 12 49
1862147N28285 1862 13 NA NA NOT_NAMED 1862-05-28 09:00:00 SS 31.1575 -68.9847 main 790 790 _____________P -1 31.1575 -68.9847 SS 42 11 51
1862147N28285 1862 13 NA NA NOT_NAMED 1862-05-28 12:00:00 SS 31.5000 -68.5000 main 804 804 _____________O -1 31.5000 -68.5000 SS 45 10 48
1862147N28285 1862 13 NA NA NOT_NAMED 1862-05-28 15:00:00 SS 31.8496 -68.0919 main 814 808 _____________P -1 31.8496 -68.0919 SS 45 10 44
1862147N28285 1862 13 NA NA NOT_NAMED 1862-05-28 18:00:00 SS 32.2000 -67.7000 main 821 821 _____________O -1 32.2000 -67.7000 SS 45 10 43
1862147N28285 1862 13 NA NA NOT_NAMED 1862-05-28 21:00:00 SS 32.5488 -67.3313 main 837 832 _____________P -1 32.5488 -67.3313 SS 45 10 47
1862147N28285 1862 13 NA NA NOT_NAMED 1862-05-29 00:00:00 SS 32.9000 -66.8000 main 859 859 _____________O -1 32.9000 -66.8000 SS 45 14 59
1862147N28285 1862 13 NA NA NOT_NAMED 1862-05-29 03:00:00 SS 33.2507 -65.9251 main 920 920 _____________P -1 33.2507 -65.9251 SS 42 17 66
1862147N28285 1862 13 NA NA NOT_NAMED 1862-05-29 06:00:00 SS 33.6000 -64.9000 main 996 996 _____________O -1 33.6000 -64.9000 SS 40 17 69
1862147N28285 1862 13 NA NA NOT_NAMED 1862-05-29 09:00:00 SS 33.8723 -64.0196 main 1014 1014 _____________P -1 33.8723 -64.0196 SS 40 17 66
1862147N28285 1862 13 NA NA NOT_NAMED 1862-05-29 12:00:00 SS 34.3000 -63.0000 main 1025 1003 _____________O -1 34.3000 -63.0000 SS 40 22 60
1862147N28285 1862 13 NA NA NOT_NAMED 1862-05-29 15:00:00 SS 34.9766 -61.6709 main 995 946 _____________P -1 34.9766 -61.6709 SS 37 29 54
1862147N28285 1862 13 NA NA NOT_NAMED 1862-05-29 18:00:00 ET 36.0000 -60.1000 main 944 896 _____________O -1 36.0000 -60.1000 EX 35 36 48
1862147N28285 1862 13 NA NA NOT_NAMED 1862-05-29 21:00:00 ET 37.4006 -58.3648 main 891 792 _____________P -1 37.4006 -58.3648 EX 35 41 44
1862147N28285 1862 13 NA NA NOT_NAMED 1862-05-30 00:00:00 ET 39.0000 -56.5000 main 786 _____________O -1 39.0000 -56.5000 EX 35 43 42

IBTrACS Databaseについて

本データベースは、米国NOAAが公開する1842年以降の世界の熱帯低気圧のベストトラックデータアーカイブInternational Best Track Archive for Climate Stewardship (IBTrACS)を、ウェブで閲覧しやすい形式に変換したものです。

最終更新日:2021-12-03